Observations for Trim Patrick St
| Time | AQI | Temp °C | Hum % | Pres Pa | CO μg/m³ | H₂S μg/m³ | NO μg/m³ | NO₂ μg/m³ | O₃ μg/m³ | SO₂ μg/m³ | PM1 μg/m³ | PM2.5 μg/m³ | PM10 μg/m³ |
|---|---|---|---|---|---|---|---|---|---|---|---|---|---|
| Thursday 30 July 2026 | |||||||||||||
| 20:07 | 3 | 21.3 | 42 | 68,726 | 0 | 6.57 | 1.5 | 9.94 | 74.47 | 5.02 | 2.86 | 8.46 | 9.3 |
| 20:06 | 3 | 21.3 | 42 | 68,741 | 0 | 8.31 | 1.49 | 9.24 | 74.45 | 4.56 | 2.86 | 8.46 | 9.31 |
| 20:05 | 3 | 21.4 | 42 | 68,759 | 0 | 7.39 | 1.5 | 12.63 | 76.65 | 4.5 | 2.86 | 9.26 | 10.18 |
| 20:04 | 3 | 21.5 | 42 | 68,786 | 0 | 6.3 | 1.51 | 9.1 | 70.26 | 4.57 | 3.71 | 8.49 | 9.33 |
| 20:03 | 3 | 21.5 | 42 | 68,788 | 0 | 8.18 | 1.5 | 12.32 | 70.67 | 4.9 | 2 | 7.71 | 8.48 |
| 20:02 | 3 | 21.5 | 42 | 68,788 | 0 | 4.9 | 1.49 | 8.82 | 72.11 | 4.14 | 2.86 | 8.49 | 9.34 |
| 20:01 | 3 | 21.6 | 42 | 68,790 | 0 | 5.35 | 1.49 | 10.58 | 70.55 | 4.07 | 2 | 8.5 | 9.35 |
| 19:59 | 3 | 21.7 | 42 | 68,792 | 0 | 5.61 | 1.5 | 11.12 | 74.44 | 4.86 | 2 | 7.73 | 8.5 |
| 19:58 | 3 | 21.8 | 42 | 68,794 | 0 | 5.87 | 1.5 | 9.03 | 75.23 | 4.76 | 2 | 6.95 | 7.64 |
| 19:57 | 3 | 21.8 | 41 | 68,796 | 0 | 4.76 | 1.51 | 11.44 | 69.02 | 4.41 | 2 | 7.74 | 8.51 |
| 19:56 | 3 | 21.9 | 41 | 68,798 | 0 | 6.82 | 1.51 | 8.81 | 72.16 | 5.16 | 2 | 6.96 | 7.65 |
| 19:55 | 3 | 21.9 | 41 | 68,800 | 0 | 6.32 | 1.52 | 14.15 | 65.82 | 4.63 | 2 | 6.97 | 7.67 |
| 19:54 | 3 | 22 | 41 | 68,798 | 0 | 6.92 | 1.51 | 12.04 | 70.98 | 4.93 | 2 | 6.97 | 7.67 |
| 19:53 | 3 | 22 | 41 | 68,796 | 0 | 5.07 | 1.53 | 8.72 | 79.11 | 4.77 | 2.86 | 8.55 | 9.4 |
| 19:52 | 3 | 22.1 | 41 | 68,798 | 0 | 4.96 | 1.53 | 13.11 | 66.88 | 4.56 | 2 | 6.99 | 7.69 |
| 19:51 | 3 | 22.1 | 41 | 68,794 | 0 | 3.85 | 1.53 | 10.04 | 70.55 | 4.64 | 2 | 6.98 | 7.68 |
| 19:50 | 3 | 22.2 | 41 | 68,792 | 0 | 3.24 | 1.53 | 11.2 | 66.63 | 4.16 | 2 | 7.77 | 8.55 |
| 19:49 | 3 | 22.2 | 41 | 68,792 | 0 | 3.93 | 1.53 | 9.57 | 69.06 | 4.38 | 2 | 7.76 | 8.54 |
| 19:48 | 3 | 22.2 | 41 | 68,790 | 0 | 4.75 | 1.58 | 10.31 | 68.18 | 4.56 | 2.86 | 8.54 | 9.39 |
| 19:47 | 3 | 22.2 | 41 | 68,786 | 0 | 5.17 | 1.53 | 12.06 | 71.57 | 4.78 | 2 | 7.75 | 8.53 |